createdAt,value
2019-01-26T00:01:10.262Z,58.80
2019-01-26T00:03:45.370Z,58.80
2019-01-26T00:06:17.080Z,58.70
2019-01-26T00:08:54.911Z,58.60
2019-01-26T00:11:27.362Z,58.40
2019-01-26T00:16:42.769Z,59.30
2019-01-26T00:19:16.169Z,58.70
2019-01-26T00:21:52.682Z,58.30
2019-01-26T00:24:23.441Z,57.80
2019-01-26T00:26:54.672Z,58.30
2019-01-26T00:29:25.543Z,58.40
2019-01-26T00:31:59.521Z,58.00
2019-01-26T00:34:35.519Z,57.30
2019-01-26T00:37:09.472Z,57.30
2019-01-26T00:39:40.438Z,57.60
2019-01-26T00:42:11.180Z,57.20
2019-01-26T00:44:41.617Z,56.90
2019-01-26T00:47:16.687Z,57.10
2019-01-26T00:49:47.180Z,57.10
2019-01-26T00:52:17.483Z,58.60
2019-01-26T00:54:49.147Z,60.10
2019-01-26T00:57:20.059Z,61.10
2019-01-26T00:59:53.586Z,62.40
2019-01-26T01:02:29.318Z,63.20
2019-01-26T01:05:07.049Z,64.10
2019-01-26T01:07:37.652Z,65.30
2019-01-26T01:10:25.246Z,65.80
2019-01-26T01:13:00.635Z,67.00
2019-01-26T01:15:34.494Z,68.10
2019-01-26T01:18:11.579Z,69.80
2019-01-26T01:20:45.225Z,70.50
2019-01-26T01:23:16.402Z,71.00
2019-01-26T01:25:49.790Z,70.90
2019-01-26T01:28:24.581Z,72.00
2019-01-26T01:30:54.906Z,72.40
2019-01-26T01:33:27.913Z,72.90
2019-01-26T01:36:00.123Z,73.20
2019-01-26T01:38:30.199Z,73.80
2019-01-26T01:41:00.424Z,74.80
2019-01-26T01:43:34.954Z,75.70
2019-01-26T01:46:05.276Z,76.70
2019-01-26T01:48:45.182Z,76.80
2019-01-26T01:51:15.604Z,75.80
2019-01-26T01:53:45.970Z,76.30
2019-01-26T01:56:19.112Z,75.50
2019-01-26T01:58:53.390Z,75.70
2019-01-26T02:01:23.795Z,75.60
2019-01-26T02:03:54.484Z,76.40
2019-01-26T02:06:27.001Z,77.40
2019-01-26T02:08:57.632Z,78.40
2019-01-26T02:11:27.653Z,78.90
2019-01-26T02:13:57.636Z,79.20
2019-01-26T02:16:27.638Z,79.60
2019-01-26T02:19:05.462Z,80.50
2019-01-26T02:21:38.059Z,80.90
2019-01-26T02:24:19.771Z,81.40
2019-01-26T02:26:50.022Z,82.00
2019-01-26T02:29:20.330Z,82.00
2019-01-26T02:31:50.523Z,82.20
2019-01-26T02:34:20.714Z,81.80
2019-01-26T02:36:50.965Z,81.20
2019-01-26T02:39:21.192Z,80.40
2019-01-26T02:41:51.269Z,79.60
2019-01-26T02:44:21.476Z,80.00
2019-01-26T02:46:57.983Z,80.00
2019-01-26T02:49:23.640Z,79.00
2019-01-26T02:51:53.753Z,79.40
2019-01-26T02:54:23.883Z,78.40
2019-01-26T02:56:53.921Z,78.30
2019-01-26T02:59:24.133Z,78.60
2019-01-26T03:01:54.338Z,77.80
2019-01-26T03:04:24.482Z,77.10
2019-01-26T03:06:54.656Z,77.70
2019-01-26T03:09:24.883Z,78.00
2019-01-26T03:11:55.039Z,78.00
2019-01-26T03:14:26.334Z,78.30
2019-01-26T03:16:57.080Z,78.80
2019-01-26T03:19:27.408Z,79.00
2019-01-26T03:21:57.632Z,79.80
2019-01-26T03:24:27.838Z,80.30
2019-01-26T03:26:57.935Z,80.70
2019-01-26T03:29:28.926Z,81.00
2019-01-26T03:31:58.966Z,80.70
2019-01-26T03:34:33.356Z,80.90
2019-01-26T03:37:03.327Z,81.20
2019-01-26T03:39:33.260Z,82.30
2019-01-26T03:42:03.468Z,82.80
2019-01-26T03:44:33.737Z,83.10
2019-01-26T03:47:03.982Z,82.50
2019-01-26T03:49:34.037Z,82.20
2019-01-26T03:52:04.402Z,82.40
2019-01-26T03:54:34.396Z,82.70
2019-01-26T03:57:04.746Z,82.00
2019-01-26T03:59:34.859Z,81.20
2019-01-26T04:02:05.084Z,80.90
2019-01-26T04:04:35.288Z,80.70
2019-01-26T04:07:05.529Z,80.50
2019-01-26T04:09:35.645Z,80.10
2019-01-26T04:12:06.246Z,80.20
2019-01-26T04:14:36.326Z,80.30
2019-01-26T04:17:06.405Z,80.60
2019-01-26T04:19:36.643Z,81.20
2019-01-26T04:22:06.752Z,81.30
2019-01-26T04:24:36.945Z,81.10
2019-01-26T04:27:07.634Z,81.20
2019-01-26T04:29:37.915Z,80.90
2019-01-26T04:32:08.153Z,80.50
2019-01-26T04:34:38.256Z,80.40
2019-01-26T04:37:08.458Z,80.80
2019-01-26T04:39:38.523Z,80.70
2019-01-26T04:42:08.697Z,80.90
2019-01-26T04:44:39.001Z,80.70
2019-01-26T04:47:09.044Z,80.60
2019-01-26T04:49:39.605Z,80.60
2019-01-26T04:52:09.802Z,80.60
2019-01-26T04:54:40.518Z,80.80
2019-01-26T04:57:10.812Z,80.80
2019-01-26T04:59:41.247Z,80.70
2019-01-26T05:02:15.206Z,80.70
2019-01-26T05:04:45.423Z,81.00
2019-01-26T05:07:16.092Z,81.50
2019-01-26T05:09:46.160Z,81.70
2019-01-26T05:12:16.204Z,81.40
2019-01-26T05:14:46.098Z,81.30
2019-01-26T05:17:16.090Z,81.60
2019-01-26T05:19:45.987Z,81.50
2019-01-26T05:22:16.617Z,81.10
2019-01-26T05:24:46.646Z,80.90
2019-01-26T05:27:16.633Z,81.30
2019-01-26T05:29:46.473Z,80.90
2019-01-26T05:32:16.434Z,81.40
2019-01-26T05:34:46.408Z,81.40
2019-01-26T05:37:16.835Z,81.70
2019-01-26T05:39:46.871Z,81.80
2019-01-26T05:42:16.879Z,82.30
2019-01-26T05:44:46.802Z,82.40
2019-01-26T05:47:16.830Z,82.90
2019-01-26T05:49:46.732Z,83.20
2019-01-26T05:52:16.679Z,83.30
2019-01-26T05:54:46.657Z,83.70
2019-01-26T05:57:16.669Z,83.80
2019-01-26T05:59:46.744Z,84.10
2019-01-26T06:02:16.728Z,84.10
2019-01-26T06:04:46.634Z,83.80
2019-01-26T06:07:16.649Z,83.80
2019-01-26T06:09:46.720Z,84.00
2019-01-26T06:12:16.649Z,84.10
2019-01-26T06:14:46.770Z,84.30
2019-01-26T06:17:16.577Z,84.40
2019-01-26T06:19:46.498Z,84.40
2019-01-26T06:22:16.539Z,84.50
2019-01-26T06:24:46.736Z,84.50
2019-01-26T06:27:18.630Z,84.30
2019-01-26T06:29:48.487Z,84.40
2019-01-26T06:32:18.466Z,84.80
2019-01-26T06:34:48.317Z,84.90
2019-01-26T06:37:18.428Z,84.60
2019-01-26T06:39:48.346Z,84.50
2019-01-26T06:42:18.620Z,84.60
2019-01-26T06:44:48.477Z,84.00
2019-01-26T06:47:18.511Z,83.50
2019-01-26T06:49:48.476Z,83.50
2019-01-26T06:52:18.606Z,83.40
2019-01-26T06:54:48.654Z,83.80
2019-01-26T06:57:19.948Z,83.90
2019-01-26T06:59:49.971Z,83.80
2019-01-26T07:02:19.784Z,83.90
2019-01-26T07:04:54.736Z,84.10
2019-01-26T07:07:24.892Z,84.30
2019-01-26T07:09:54.890Z,84.50
2019-01-26T07:12:24.819Z,85.20
2019-01-26T07:14:54.837Z,85.20
2019-01-26T07:17:24.961Z,85.20
2019-01-26T07:19:54.970Z,85.00
2019-01-26T07:22:24.910Z,84.80
2019-01-26T07:24:54.806Z,84.60
2019-01-26T07:27:24.725Z,84.60
2019-01-26T07:29:54.649Z,84.40
2019-01-26T07:32:24.657Z,84.30
2019-01-26T07:34:54.620Z,83.80
2019-01-26T07:37:24.547Z,83.70
2019-01-26T07:39:54.643Z,83.60
2019-01-26T07:42:24.502Z,83.30
2019-01-26T07:44:55.702Z,83.10
2019-01-26T07:47:25.845Z,82.90
2019-01-26T07:49:55.920Z,82.60
2019-01-26T07:52:26.127Z,82.50
2019-01-26T07:55:54.241Z,82.10
2019-01-26T07:58:24.409Z,81.90
2019-01-26T08:00:54.350Z,81.40
2019-01-26T08:03:24.566Z,81.20
2019-01-26T08:06:06.133Z,81.90
2019-01-26T08:08:40.346Z,81.80
2019-01-26T08:11:13.202Z,81.70
2019-01-26T08:13:43.904Z,81.70
2019-01-26T08:16:13.857Z,81.80
2019-01-26T08:18:43.840Z,82.00
2019-01-26T08:21:20.815Z,82.10
2019-01-26T08:23:54.895Z,82.90
2019-01-26T08:26:30.133Z,82.70
2019-01-26T08:29:02.398Z,82.50
2019-01-26T08:31:44.270Z,82.40
2019-01-26T08:34:19.097Z,82.30
2019-01-26T08:37:20.141Z,81.70
2019-01-26T08:39:50.529Z,81.20
2019-01-26T08:46:18.124Z,81.30
2019-01-26T08:49:16.819Z,80.60
2019-01-26T08:52:12.820Z,80.10
2019-01-26T08:55:18.450Z,79.60
2019-01-26T08:58:56.910Z,80.00
2019-01-26T09:02:11.845Z,80.40
2019-01-26T09:04:40.902Z,80.40
2019-01-26T09:07:15.433Z,80.60
2019-01-26T09:09:45.525Z,80.30
2019-01-26T09:12:15.947Z,79.90
2019-01-26T09:14:46.156Z,79.60
2019-01-26T09:17:16.238Z,79.60
2019-01-26T09:19:47.465Z,78.40
2019-01-26T09:22:19.957Z,78.50
2019-01-26T09:24:53.141Z,78.50
2019-01-26T09:27:23.253Z,77.10
2019-01-26T09:29:53.837Z,76.60
2019-01-26T09:32:28.598Z,76.40
2019-01-26T09:34:59.757Z,76.80
2019-01-26T09:37:31.421Z,76.20
2019-01-26T09:40:04.430Z,76.70
2019-01-26T09:42:37.930Z,77.00
2019-01-26T09:45:11.825Z,76.90
2019-01-26T09:47:43.540Z,77.10
2019-01-26T09:50:14.644Z,76.70
2019-01-26T09:52:45.578Z,76.50
2019-01-26T09:55:36.251Z,75.20
2019-01-26T09:58:12.278Z,75.50
2019-01-26T10:00:48.826Z,75.40
2019-01-26T10:03:19.987Z,75.10
2019-01-26T10:06:10.080Z,75.10
2019-01-26T10:08:44.315Z,75.30
2019-01-26T10:11:20.694Z,74.40
2019-01-26T10:14:00.669Z,73.20
2019-01-26T10:16:35.164Z,72.30
2019-01-26T10:19:53.289Z,72.30
2019-01-26T10:22:27.106Z,71.90
2019-01-26T10:25:03.331Z,71.30
2019-01-26T10:27:42.992Z,70.30
2019-01-26T10:30:19.518Z,70.30
2019-01-26T10:33:10.211Z,70.30
2019-01-26T10:35:54.417Z,70.10
2019-01-26T10:38:24.669Z,69.40
2019-01-26T10:41:27.363Z,68.60
2019-01-26T10:47:28.635Z,68.90
2019-01-26T10:50:39.204Z,69.50
2019-01-26T10:53:11.623Z,69.40
2019-01-26T10:56:24.740Z,69.90
2019-01-26T10:58:57.814Z,70.00
2019-01-26T11:01:28.345Z,69.50
2019-01-26T11:04:01.303Z,69.40
2019-01-26T11:06:31.158Z,69.50
2019-01-26T11:09:01.296Z,68.90
2019-01-26T11:11:31.249Z,69.30
2019-01-26T11:14:01.367Z,69.70
2019-01-26T11:16:52.393Z,69.40
2019-01-26T11:19:22.946Z,68.40
2019-01-26T11:21:57.961Z,67.70
2019-01-26T11:24:31.191Z,67.50
2019-01-26T11:27:11.718Z,67.60
2019-01-26T11:29:41.570Z,67.40
2019-01-26T11:32:14.775Z,66.70
2019-01-26T11:34:46.926Z,66.60
2019-01-26T11:40:22.680Z,66.50
2019-01-26T11:42:54.112Z,66.30
2019-01-26T11:48:26.139Z,68.00
2019-01-26T11:51:02.188Z,68.80
2019-01-26T11:53:32.448Z,68.30
2019-01-26T11:56:13.785Z,68.60
2019-01-26T11:59:03.479Z,68.40
2019-01-26T12:02:12.530Z,67.70
2019-01-26T12:05:21.716Z,67.20
2019-01-26T12:07:52.103Z,67.20
2019-01-26T12:10:23.096Z,66.90
2019-01-26T12:12:53.384Z,66.40
2019-01-26T12:15:42.988Z,67.00
2019-01-26T12:18:33.165Z,66.60
2019-01-26T12:21:03.659Z,65.40
2019-01-26T12:23:35.865Z,65.90
2019-01-26T12:26:06.446Z,66.50
2019-01-26T12:28:36.556Z,65.90
2019-01-26T12:31:06.999Z,66.20
2019-01-26T12:33:37.359Z,64.80
2019-01-26T12:36:07.907Z,64.80
2019-01-26T12:38:38.027Z,65.40
2019-01-26T12:41:08.094Z,66.00
2019-01-26T12:43:38.369Z,66.00
2019-01-26T12:46:08.588Z,65.90
2019-01-26T12:48:38.753Z,65.90
2019-01-26T12:51:08.864Z,65.80
2019-01-26T12:53:39.310Z,65.80
2019-01-26T12:56:10.540Z,65.70
2019-01-26T12:58:41.183Z,65.60
2019-01-26T13:01:12.982Z,66.10
2019-01-26T13:03:43.134Z,66.40
2019-01-26T13:06:13.657Z,66.40
2019-01-26T13:08:44.511Z,67.00
2019-01-26T13:11:24.903Z,66.70
2019-01-26T13:13:57.758Z,67.60
2019-01-26T13:16:28.180Z,69.00
2019-01-26T13:18:58.639Z,68.70
2019-01-26T13:21:29.117Z,68.40
2019-01-26T13:23:59.395Z,68.20
2019-01-26T13:26:29.647Z,67.20
2019-01-26T13:28:59.839Z,67.10
2019-01-26T13:31:30.887Z,66.70
2019-01-26T13:34:01.308Z,67.00
2019-01-26T13:36:31.628Z,66.60
2019-01-26T13:39:04.975Z,66.70
2019-01-26T13:41:48.811Z,66.60
2019-01-26T13:44:19.048Z,66.10
2019-01-26T13:46:49.120Z,66.10
2019-01-26T13:49:21.693Z,65.90
2019-01-26T13:51:51.929Z,65.50
2019-01-26T13:54:22.138Z,65.10
2019-01-26T13:56:52.225Z,65.80
2019-01-26T13:59:22.437Z,66.50
2019-01-26T14:01:52.885Z,66.60
2019-01-26T14:04:23.420Z,67.60
2019-01-26T14:06:53.388Z,67.40
2019-01-26T14:09:23.436Z,68.50
2019-01-26T14:11:53.940Z,69.10
2019-01-26T14:17:42.249Z,68.70
2019-01-26T14:20:16.395Z,68.90
2019-01-26T14:22:49.417Z,69.40
2019-01-26T14:25:20.027Z,69.70
2019-01-26T14:27:50.335Z,70.30
2019-01-26T14:33:01.732Z,71.00
2019-01-26T14:35:31.861Z,71.00
2019-01-26T14:38:02.242Z,71.00
2019-01-26T14:40:32.630Z,71.60
2019-01-26T14:43:02.984Z,71.70
2019-01-26T14:45:33.251Z,71.60
2019-01-26T14:48:03.414Z,72.80
2019-01-26T14:50:33.384Z,73.20
2019-01-26T14:53:03.472Z,73.60
2019-01-26T14:55:33.662Z,74.10
2019-01-26T14:58:04.342Z,73.60
2019-01-26T15:00:34.721Z,74.10
2019-01-26T15:03:05.547Z,75.00
2019-01-26T15:05:36.080Z,75.40
2019-01-26T15:08:06.212Z,75.90
2019-01-26T15:10:36.284Z,76.50
2019-01-26T15:13:06.327Z,76.80
2019-01-26T15:15:36.595Z,77.10
2019-01-26T15:18:06.766Z,77.50
2019-01-26T15:20:39.032Z,77.70
2019-01-26T15:23:12.299Z,78.30
2019-01-26T15:25:42.470Z,78.60
2019-01-26T15:28:12.784Z,79.80
2019-01-26T15:30:43.454Z,79.70
2019-01-26T15:33:14.515Z,80.10
2019-01-26T15:35:44.868Z,81.00
2019-01-26T15:38:14.947Z,81.60
2019-01-26T15:40:45.358Z,82.30
2019-01-26T15:43:15.766Z,82.50
2019-01-26T15:45:49.165Z,82.70
2019-01-26T15:48:19.360Z,83.20
2019-01-26T15:50:52.428Z,83.60
2019-01-26T15:53:23.314Z,83.10
2019-01-26T15:55:53.866Z,82.60
2019-01-26T15:58:25.372Z,82.10
2019-01-26T16:01:06.318Z,81.40
2019-01-26T16:03:47.946Z,82.00
2019-01-26T16:06:18.149Z,81.50
2019-01-26T16:08:49.532Z,82.30
2019-01-26T16:11:22.783Z,82.30
2019-01-26T16:13:52.788Z,81.60
2019-01-26T16:16:22.881Z,81.40
2019-01-26T16:18:53.074Z,80.80
2019-01-26T16:21:23.844Z,80.00
2019-01-26T16:23:55.147Z,79.50
2019-01-26T16:26:25.199Z,79.50
2019-01-26T16:28:55.775Z,79.60
2019-01-26T16:31:26.276Z,78.40
2019-01-26T16:33:56.293Z,77.70
2019-01-26T16:36:29.485Z,77.20
2019-01-26T16:39:00.030Z,77.70
2019-01-26T16:41:30.016Z,77.70
2019-01-26T16:44:00.037Z,77.60
2019-01-26T16:46:30.059Z,78.10
2019-01-26T16:49:00.212Z,77.50
2019-01-26T16:51:30.225Z,77.60
2019-01-26T16:54:01.022Z,76.90
2019-01-26T16:56:31.049Z,77.20
2019-01-26T16:59:01.160Z,76.80
2019-01-26T17:01:31.144Z,76.40
2019-01-26T17:04:01.261Z,76.20
2019-01-26T17:06:31.700Z,76.80
2019-01-26T17:09:02.083Z,78.30
2019-01-26T17:11:32.163Z,77.80
2019-01-26T17:14:02.645Z,77.20
2019-01-26T17:16:33.356Z,78.00
2019-01-26T17:19:06.957Z,77.50
2019-01-26T17:21:36.919Z,77.50
2019-01-26T17:24:06.930Z,77.60
2019-01-26T17:26:36.982Z,77.60
2019-01-26T17:29:07.344Z,77.70
2019-01-26T17:31:37.371Z,77.50
2019-01-26T17:34:07.358Z,77.00
2019-01-26T17:36:39.580Z,76.90
2019-01-26T17:39:10.362Z,76.90
2019-01-26T17:41:47.987Z,76.60
2019-01-26T17:44:28.683Z,76.60
2019-01-26T17:47:01.406Z,76.60
2019-01-26T17:49:32.244Z,76.50
2019-01-26T17:52:02.766Z,76.20
2019-01-26T17:54:33.227Z,76.20
2019-01-26T17:57:03.851Z,75.90
2019-01-26T17:59:35.268Z,75.50
2019-01-26T18:02:11.132Z,74.90
2019-01-26T18:04:41.987Z,75.00
2019-01-26T18:07:12.731Z,75.10
2019-01-26T18:09:45.809Z,75.20
2019-01-26T18:12:16.477Z,75.50
2019-01-26T18:14:47.284Z,75.80
2019-01-26T18:17:19.660Z,76.10
2019-01-26T18:19:50.861Z,76.60
2019-01-26T18:22:21.405Z,77.10
2019-01-26T18:24:51.905Z,77.60
2019-01-26T18:27:22.441Z,77.60
2019-01-26T18:29:53.048Z,77.70
2019-01-26T18:32:23.294Z,77.60
2019-01-26T18:34:55.510Z,77.70
2019-01-26T18:37:28.158Z,77.90
2019-01-26T18:40:03.807Z,78.00
2019-01-26T18:42:34.177Z,77.60
2019-01-26T18:45:07.108Z,77.30
2019-01-26T18:47:37.351Z,77.00
2019-01-26T18:50:12.372Z,78.20
2019-01-26T18:52:42.404Z,77.20
2019-01-26T18:55:12.642Z,77.30
2019-01-26T18:57:42.839Z,77.20
2019-01-26T19:00:17.065Z,76.80
2019-01-26T19:02:49.912Z,76.90
2019-01-26T19:05:20.400Z,76.90
2019-01-26T19:07:50.635Z,76.80
2019-01-26T19:10:20.845Z,76.70
2019-01-26T19:12:51.097Z,76.70
2019-01-26T19:15:22.256Z,76.50
2019-01-26T19:17:52.505Z,76.40
2019-01-26T19:20:23.787Z,76.60
2019-01-26T19:22:54.056Z,77.00
2019-01-26T19:25:24.363Z,77.10
2019-01-26T19:27:56.850Z,77.00
2019-01-26T19:30:27.305Z,77.10
2019-01-26T19:32:57.348Z,77.30
2019-01-26T19:35:27.313Z,77.80
2019-01-26T19:37:57.231Z,78.70
2019-01-26T19:40:27.818Z,79.00
2019-01-26T19:42:57.942Z,78.50
2019-01-26T19:45:27.898Z,78.40
2019-01-26T19:47:57.834Z,78.00
2019-01-26T19:50:27.684Z,78.20
2019-01-26T19:52:57.730Z,78.40
2019-01-26T19:55:28.098Z,78.30
2019-01-26T19:57:58.210Z,78.40
2019-01-26T20:00:28.233Z,78.90
2019-01-26T20:02:59.346Z,79.00
2019-01-26T20:05:30.338Z,79.00
2019-01-26T20:08:00.406Z,80.40
2019-01-26T20:10:30.487Z,81.10
2019-01-26T20:13:00.340Z,80.60
2019-01-26T20:15:30.466Z,80.70
2019-01-26T20:18:04.179Z,80.00
2019-01-26T20:20:34.476Z,79.90
2019-01-26T20:23:05.450Z,79.70
2019-01-26T20:25:35.711Z,79.10
2019-01-26T20:28:05.684Z,79.20
2019-01-26T20:30:35.821Z,79.30
2019-01-26T20:33:05.750Z,79.70
2019-01-26T20:35:35.683Z,79.70
2019-01-26T20:38:06.030Z,79.70
2019-01-26T20:40:36.068Z,79.70
2019-01-26T20:43:06.153Z,79.80
2019-01-26T20:45:37.265Z,79.90
2019-01-26T20:48:08.247Z,79.80
2019-01-26T20:50:40.018Z,80.00
2019-01-26T20:53:10.020Z,80.60
2019-01-26T20:55:40.056Z,80.30
2019-01-26T20:58:10.016Z,80.10
2019-01-26T21:00:40.358Z,80.20
2019-01-26T21:03:46.893Z,80.30
2019-01-26T21:07:50.370Z,80.50
2019-01-26T21:10:28.466Z,80.50
2019-01-26T21:13:00.929Z,80.50
2019-01-26T21:15:33.311Z,80.40
2019-01-26T21:18:08.097Z,80.40
2019-01-26T21:20:43.522Z,80.30
2019-01-26T21:23:32.688Z,80.10
2019-01-26T21:27:27.346Z,80.10
2019-01-26T21:34:11.124Z,80.50
2019-01-26T21:36:48.447Z,81.00
2019-01-26T21:39:22.058Z,80.90
2019-01-26T21:42:38.838Z,81.10
2019-01-26T21:45:13.019Z,81.10
2019-01-26T21:47:44.381Z,80.80
2019-01-26T21:50:21.102Z,80.90
2019-01-26T21:52:59.213Z,81.00
2019-01-26T21:55:44.077Z,80.90
2019-01-26T21:58:15.320Z,80.80
2019-01-26T22:00:45.824Z,80.30
2019-01-26T22:03:16.305Z,80.20
2019-01-26T22:05:48.114Z,80.10
2019-01-26T22:08:28.815Z,80.00
2019-01-26T22:10:59.344Z,79.60
2019-01-26T22:13:29.628Z,79.50
2019-01-26T22:16:00.393Z,79.30
2019-01-26T22:18:32.691Z,78.90
2019-01-26T22:21:03.221Z,78.90
2019-01-26T22:23:39.618Z,78.80
2019-01-26T22:26:10.726Z,78.80
2019-01-26T22:28:40.839Z,78.90
2019-01-26T22:31:10.785Z,78.90
2019-01-26T22:33:40.823Z,78.50
2019-01-26T22:36:11.028Z,77.70
2019-01-26T22:38:48.872Z,77.50
2019-01-26T22:41:18.995Z,77.40
2019-01-26T22:43:48.952Z,77.20
2019-01-26T22:46:19.069Z,77.70
2019-01-26T22:48:49.070Z,76.60
2019-01-26T22:51:19.069Z,76.70
2019-01-26T22:53:48.929Z,76.90
2019-01-26T22:56:18.945Z,76.90
2019-01-26T22:58:49.264Z,76.50
2019-01-26T23:01:32.636Z,76.70
2019-01-26T23:05:03.572Z,76.40
2019-01-26T23:07:47.612Z,76.10
2019-01-26T23:11:39.791Z,75.60
2019-01-26T23:14:57.697Z,75.40
2019-01-26T23:18:10.310Z,75.50
2019-01-26T23:21:24.679Z,75.90
2019-01-26T23:24:20.420Z,75.90
2019-01-26T23:27:26.163Z,75.90
2019-01-26T23:30:47.771Z,75.60
2019-01-26T23:33:18.049Z,75.40
2019-01-26T23:35:54.958Z,74.50
2019-01-26T23:38:25.065Z,74.30
2019-01-26T23:40:54.981Z,74.40
2019-01-26T23:43:25.102Z,74.60
2019-01-26T23:46:13.307Z,74.70
2019-01-26T23:49:06.921Z,74.70
2019-01-26T23:52:30.972Z,74.40
2019-01-26T23:55:08.411Z,74.40
2019-01-26T23:57:42.012Z,74.70
